sensor_id;sensor_type;location;lat;lon;timestamp;temperature;humidity
2260;DHT22;333;48.800;9.530;2023-10-31T00:00:16;12.00;99.60
2260;DHT22;333;48.800;9.530;2023-10-31T00:02:43;12.00;99.60
2260;DHT22;333;48.800;9.530;2023-10-31T00:05:11;12.00;99.60
2260;DHT22;333;48.800;9.530;2023-10-31T00:07:38;12.00;99.60
2260;DHT22;333;48.800;9.530;2023-10-31T00:10:06;12.00;99.60
2260;DHT22;333;48.800;9.530;2023-10-31T00:12:33;12.00;99.60
2260;DHT22;333;48.800;9.530;2023-10-31T00:15:00;12.00;99.60
2260;DHT22;333;48.800;9.530;2023-10-31T00:17:28;11.90;99.60
2260;DHT22;333;48.800;9.530;2023-10-31T00:19:55;11.90;99.60
2260;DHT22;333;48.800;9.530;2023-10-31T00:22:24;11.90;99.60
2260;DHT22;333;48.800;9.530;2023-10-31T00:24:51;11.90;99.60
2260;DHT22;333;48.800;9.530;2023-10-31T00:27:18;11.90;99.60
2260;DHT22;333;48.800;9.530;2023-10-31T00:29:45;11.90;99.60
2260;DHT22;333;48.800;9.530;2023-10-31T00:32:12;11.90;99.60
2260;DHT22;333;48.800;9.530;2023-10-31T00:34:39;11.90;99.60
2260;DHT22;333;48.800;9.530;2023-10-31T00:37:06;11.90;99.60
2260;DHT22;333;48.800;9.530;2023-10-31T00:39:34;11.80;99.60
2260;DHT22;333;48.800;9.530;2023-10-31T00:42:02;11.80;99.60
2260;DHT22;333;48.800;9.530;2023-10-31T00:44:29;11.80;99.60
2260;DHT22;333;48.800;9.530;2023-10-31T00:46:56;11.80;99.60
2260;DHT22;333;48.800;9.530;2023-10-31T00:49:23;11.90;99.60
2260;DHT22;333;48.800;9.530;2023-10-31T00:51:50;11.90;99.60
2260;DHT22;333;48.800;9.530;2023-10-31T00:54:17;11.80;99.60
2260;DHT22;333;48.800;9.530;2023-10-31T00:56:46;11.80;99.60
2260;DHT22;333;48.800;9.530;2023-10-31T00:59:13;11.80;99.60
2260;DHT22;333;48.800;9.530;2023-10-31T01:01:41;11.80;99.60
2260;DHT22;333;48.800;9.530;2023-10-31T01:04:09;11.80;99.60
2260;DHT22;333;48.800;9.530;2023-10-31T01:06:40;11.80;99.60
2260;DHT22;333;48.800;9.530;2023-10-31T01:09:07;11.80;99.60
2260;DHT22;333;48.800;9.530;2023-10-31T01:11:34;11.80;99.60
2260;DHT22;333;48.800;9.530;2023-10-31T01:14:03;11.70;99.60
2260;DHT22;333;48.800;9.530;2023-10-31T01:16:30;11.70;99.60
2260;DHT22;333;48.800;9.530;2023-10-31T01:18:57;11.70;99.60
2260;DHT22;333;48.800;9.530;2023-10-31T01:21:24;11.70;99.60
2260;DHT22;333;48.800;9.530;2023-10-31T01:23:51;11.70;99.60
2260;DHT22;333;48.800;9.530;2023-10-31T01:26:18;11.70;99.60
2260;DHT22;333;48.800;9.530;2023-10-31T01:28:45;11.70;99.60
2260;DHT22;333;48.800;9.530;2023-10-31T01:31:13;11.70;99.60
2260;DHT22;333;48.800;9.530;2023-10-31T01:33:40;11.70;99.60
2260;DHT22;333;48.800;9.530;2023-10-31T01:36:08;11.70;99.60
2260;DHT22;333;48.800;9.530;2023-10-31T01:38:36;11.70;99.60
2260;DHT22;333;48.800;9.530;2023-10-31T01:41:03;11.70;99.60
2260;DHT22;333;48.800;9.530;2023-10-31T01:43:31;11.80;99.60
2260;DHT22;333;48.800;9.530;2023-10-31T01:45:59;11.80;99.60
2260;DHT22;333;48.800;9.530;2023-10-31T01:48:29;11.80;99.60
2260;DHT22;333;48.800;9.530;2023-10-31T01:50:57;11.80;99.60
2260;DHT22;333;48.800;9.530;2023-10-31T01:53:25;11.80;99.60
2260;DHT22;333;48.800;9.530;2023-10-31T01:55:52;11.80;99.60
2260;DHT22;333;48.800;9.530;2023-10-31T01:58:25;11.70;99.60
2260;DHT22;333;48.800;9.530;2023-10-31T02:00:55;11.70;99.60
2260;DHT22;333;48.800;9.530;2023-10-31T02:03:22;11.70;99.60
2260;DHT22;333;48.800;9.530;2023-10-31T02:05:52;11.60;99.60
2260;DHT22;333;48.800;9.530;2023-10-31T02:08:19;11.60;99.60
2260;DHT22;333;48.800;9.530;2023-10-31T02:10:46;11.50;99.60
2260;DHT22;333;48.800;9.530;2023-10-31T02:13:14;11.50;99.60
2260;DHT22;333;48.800;9.530;2023-10-31T02:15:41;11.40;99.60
2260;DHT22;333;48.800;9.530;2023-10-31T02:18:09;11.40;99.60
2260;DHT22;333;48.800;9.530;2023-10-31T02:20:36;11.30;99.60
2260;DHT22;333;48.800;9.530;2023-10-31T02:23:04;11.30;99.60
2260;DHT22;333;48.800;9.530;2023-10-31T02:25:31;11.20;99.60
2260;DHT22;333;48.800;9.530;2023-10-31T02:27:59;11.10;99.60
2260;DHT22;333;48.800;9.530;2023-10-31T02:30:26;11.10;99.60
2260;DHT22;333;48.800;9.530;2023-10-31T02:32:54;11.10;99.60
2260;DHT22;333;48.800;9.530;2023-10-31T02:35:21;11.00;99.60
2260;DHT22;333;48.800;9.530;2023-10-31T02:37:48;11.00;99.60
2260;DHT22;333;48.800;9.530;2023-10-31T02:40:17;11.00;99.60
2260;DHT22;333;48.800;9.530;2023-10-31T02:42:44;10.90;99.60
2260;DHT22;333;48.800;9.530;2023-10-31T02:45:11;10.90;99.60
2260;DHT22;333;48.800;9.530;2023-10-31T02:47:38;10.90;99.60
2260;DHT22;333;48.800;9.530;2023-10-31T02:50:06;10.80;99.60
2260;DHT22;333;48.800;9.530;2023-10-31T02:52:33;10.80;99.60
2260;DHT22;333;48.800;9.530;2023-10-31T02:55:00;10.70;99.60
2260;DHT22;333;48.800;9.530;2023-10-31T02:57:29;10.60;99.60
2260;DHT22;333;48.800;9.530;2023-10-31T02:59:56;10.50;99.60
2260;DHT22;333;48.800;9.530;2023-10-31T03:02:23;10.40;99.60
2260;DHT22;333;48.800;9.530;2023-10-31T03:04:50;10.30;99.60
2260;DHT22;333;48.800;9.530;2023-10-31T03:07:17;10.20;99.60
2260;DHT22;333;48.800;9.530;2023-10-31T03:09:44;10.40;99.60
2260;DHT22;333;48.800;9.530;2023-10-31T03:12:11;10.50;99.60
2260;DHT22;333;48.800;9.530;2023-10-31T03:14:39;10.40;99.60
2260;DHT22;333;48.800;9.530;2023-10-31T03:17:06;10.30;99.60
2260;DHT22;333;48.800;9.530;2023-10-31T03:19:33;10.40;99.60
2260;DHT22;333;48.800;9.530;2023-10-31T03:22:00;10.30;99.60
2260;DHT22;333;48.800;9.530;2023-10-31T03:24:27;10.30;99.60
2260;DHT22;333;48.800;9.530;2023-10-31T03:26:54;10.20;99.60
2260;DHT22;333;48.800;9.530;2023-10-31T03:29:21;10.10;99.60
2260;DHT22;333;48.800;9.530;2023-10-31T03:31:49;10.10;99.60
2260;DHT22;333;48.800;9.530;2023-10-31T03:34:16;10.00;99.60
2260;DHT22;333;48.800;9.530;2023-10-31T03:36:43;10.00;99.60
2260;DHT22;333;48.800;9.530;2023-10-31T03:39:10;10.00;99.60
2260;DHT22;333;48.800;9.530;2023-10-31T03:41:37;10.00;99.60
2260;DHT22;333;48.800;9.530;2023-10-31T03:44:05;10.00;99.60
2260;DHT22;333;48.800;9.530;2023-10-31T03:46:32;10.00;99.60
2260;DHT22;333;48.800;9.530;2023-10-31T03:49:01;10.00;99.60
2260;DHT22;333;48.800;9.530;2023-10-31T03:51:28;10.20;99.60
2260;DHT22;333;48.800;9.530;2023-10-31T03:53:55;10.10;99.60
2260;DHT22;333;48.800;9.530;2023-10-31T03:56:22;10.10;99.60
2260;DHT22;333;48.800;9.530;2023-10-31T03:58:49;10.10;99.60
2260;DHT22;333;48.800;9.530;2023-10-31T04:01:38;10.10;99.60
2260;DHT22;333;48.800;9.530;2023-10-31T04:04:07;10.00;99.60
2260;DHT22;333;48.800;9.530;2023-10-31T04:06:34;10.00;99.60
2260;DHT22;333;48.800;9.530;2023-10-31T04:09:09;9.90;99.60
2260;DHT22;333;48.800;9.530;2023-10-31T04:11:37;10.00;99.60
2260;DHT22;333;48.800;9.530;2023-10-31T04:14:04;10.10;99.60
2260;DHT22;333;48.800;9.530;2023-10-31T04:16:31;10.20;99.60
2260;DHT22;333;48.800;9.530;2023-10-31T04:18:58;10.20;99.60
2260;DHT22;333;48.800;9.530;2023-10-31T04:21:26;10.30;99.60
2260;DHT22;333;48.800;9.530;2023-10-31T04:24:00;10.30;99.60
2260;DHT22;333;48.800;9.530;2023-10-31T04:26:27;10.30;99.60
2260;DHT22;333;48.800;9.530;2023-10-31T04:28:54;10.30;99.60
2260;DHT22;333;48.800;9.530;2023-10-31T04:31:22;10.20;99.60
2260;DHT22;333;48.800;9.530;2023-10-31T04:33:49;10.10;99.60
2260;DHT22;333;48.800;9.530;2023-10-31T04:36:16;10.10;99.60
2260;DHT22;333;48.800;9.530;2023-10-31T04:38:44;10.00;99.60
2260;DHT22;333;48.800;9.530;2023-10-31T04:41:11;10.00;99.60
2260;DHT22;333;48.800;9.530;2023-10-31T04:43:39;9.90;99.60
2260;DHT22;333;48.800;9.530;2023-10-31T04:46:07;9.90;99.60
2260;DHT22;333;48.800;9.530;2023-10-31T04:48:34;9.90;99.60
2260;DHT22;333;48.800;9.530;2023-10-31T04:51:01;10.00;99.60
2260;DHT22;333;48.800;9.530;2023-10-31T04:53:28;9.90;99.60
2260;DHT22;333;48.800;9.530;2023-10-31T04:55:59;9.90;99.60
2260;DHT22;333;48.800;9.530;2023-10-31T04:58:26;9.90;99.60
2260;DHT22;333;48.800;9.530;2023-10-31T05:00:53;9.90;99.60
2260;DHT22;333;48.800;9.530;2023-10-31T05:03:20;9.90;99.60
2260;DHT22;333;48.800;9.530;2023-10-31T05:05:47;9.90;99.60
2260;DHT22;333;48.800;9.530;2023-10-31T05:08:14;10.00;99.60
2260;DHT22;333;48.800;9.530;2023-10-31T05:10:41;9.90;99.60
2260;DHT22;333;48.800;9.530;2023-10-31T05:13:09;9.80;99.60
2260;DHT22;333;48.800;9.530;2023-10-31T05:15:36;9.80;99.60
2260;DHT22;333;48.800;9.530;2023-10-31T05:18:03;9.80;99.60
2260;DHT22;333;48.800;9.530;2023-10-31T05:20:30;9.80;99.60
2260;DHT22;333;48.800;9.530;2023-10-31T05:22:57;9.70;99.60
2260;DHT22;333;48.800;9.530;2023-10-31T05:25:24;9.80;99.60
2260;DHT22;333;48.800;9.530;2023-10-31T05:27:51;9.80;99.60
2260;DHT22;333;48.800;9.530;2023-10-31T05:30:20;9.70;99.60
2260;DHT22;333;48.800;9.530;2023-10-31T05:32:49;9.70;99.60
2260;DHT22;333;48.800;9.530;2023-10-31T05:35:16;9.70;99.60
2260;DHT22;333;48.800;9.530;2023-10-31T05:37:43;9.70;99.60
2260;DHT22;333;48.800;9.530;2023-10-31T05:40:11;9.60;99.60
2260;DHT22;333;48.800;9.530;2023-10-31T05:42:38;9.60;99.60
2260;DHT22;333;48.800;9.530;2023-10-31T05:45:06;9.60;99.60
2260;DHT22;333;48.800;9.530;2023-10-31T05:47:34;9.60;99.60
2260;DHT22;333;48.800;9.530;2023-10-31T05:50:01;9.50;99.60
2260;DHT22;333;48.800;9.530;2023-10-31T05:52:29;9.40;99.60
2260;DHT22;333;48.800;9.530;2023-10-31T05:54:56;9.60;99.60
2260;DHT22;333;48.800;9.530;2023-10-31T05:57:23;9.60;99.60
2260;DHT22;333;48.800;9.530;2023-10-31T05:59:50;9.60;99.60
2260;DHT22;333;48.800;9.530;2023-10-31T06:02:17;9.70;99.60
2260;DHT22;333;48.800;9.530;2023-10-31T06:04:45;9.70;99.60
2260;DHT22;333;48.800;9.530;2023-10-31T06:07:12;9.70;99.60
2260;DHT22;333;48.800;9.530;2023-10-31T06:09:39;9.50;99.60
2260;DHT22;333;48.800;9.530;2023-10-31T06:12:06;9.30;99.60
2260;DHT22;333;48.800;9.530;2023-10-31T06:14:33;9.40;99.60
2260;DHT22;333;48.800;9.530;2023-10-31T06:17:01;9.50;99.60
2260;DHT22;333;48.800;9.530;2023-10-31T06:19:28;9.60;99.60
2260;DHT22;333;48.800;9.530;2023-10-31T06:21:56;9.70;99.60
2260;DHT22;333;48.800;9.530;2023-10-31T06:24:23;9.90;99.60
2260;DHT22;333;48.800;9.530;2023-10-31T06:26:52;10.00;99.60
2260;DHT22;333;48.800;9.530;2023-10-31T06:29:19;10.00;99.60
2260;DHT22;333;48.800;9.530;2023-10-31T06:31:46;10.10;99.60
2260;DHT22;333;48.800;9.530;2023-10-31T06:34:13;10.20;99.60
2260;DHT22;333;48.800;9.530;2023-10-31T06:36:40;10.20;99.60
2260;DHT22;333;48.800;9.530;2023-10-31T06:39:08;10.20;99.60
2260;DHT22;333;48.800;9.530;2023-10-31T06:41:35;10.20;99.60
2260;DHT22;333;48.800;9.530;2023-10-31T06:44:02;10.30;99.60
2260;DHT22;333;48.800;9.530;2023-10-31T06:46:30;10.30;99.60
2260;DHT22;333;48.800;9.530;2023-10-31T06:48:56;10.30;99.60
2260;DHT22;333;48.800;9.530;2023-10-31T06:51:23;10.30;99.60
2260;DHT22;333;48.800;9.530;2023-10-31T06:53:51;10.30;99.60
2260;DHT22;333;48.800;9.530;2023-10-31T06:56:19;10.40;99.60
2260;DHT22;333;48.800;9.530;2023-10-31T06:58:46;10.30;99.60
2260;DHT22;333;48.800;9.530;2023-10-31T07:01:14;10.30;99.60
2260;DHT22;333;48.800;9.530;2023-10-31T07:03:44;10.20;99.60
2260;DHT22;333;48.800;9.530;2023-10-31T07:06:11;10.20;99.60
2260;DHT22;333;48.800;9.530;2023-10-31T07:08:38;10.30;99.60
2260;DHT22;333;48.800;9.530;2023-10-31T07:11:05;10.50;99.60
2260;DHT22;333;48.800;9.530;2023-10-31T07:13:33;10.60;99.60
2260;DHT22;333;48.800;9.530;2023-10-31T07:16:00;10.70;99.60
2260;DHT22;333;48.800;9.530;2023-10-31T07:18:27;10.70;99.60
2260;DHT22;333;48.800;9.530;2023-10-31T07:20:54;10.80;99.60
2260;DHT22;333;48.800;9.530;2023-10-31T07:23:21;10.80;99.60
2260;DHT22;333;48.800;9.530;2023-10-31T07:25:49;10.80;99.60
2260;DHT22;333;48.800;9.530;2023-10-31T07:28:16;10.80;99.60
2260;DHT22;333;48.800;9.530;2023-10-31T07:30:45;10.90;99.60
2260;DHT22;333;48.800;9.530;2023-10-31T07:33:12;10.80;99.60
2260;DHT22;333;48.800;9.530;2023-10-31T07:35:39;10.90;99.60
2260;DHT22;333;48.800;9.530;2023-10-31T07:38:06;10.90;99.60
2260;DHT22;333;48.800;9.530;2023-10-31T07:40:33;11.00;99.60
2260;DHT22;333;48.800;9.530;2023-10-31T07:43:00;11.00;99.60
2260;DHT22;333;48.800;9.530;2023-10-31T07:45:27;11.00;99.60
2260;DHT22;333;48.800;9.530;2023-10-31T07:47:56;11.00;99.60
2260;DHT22;333;48.800;9.530;2023-10-31T07:50:23;11.00;99.60
2260;DHT22;333;48.800;9.530;2023-10-31T07:52:50;11.10;99.60
2260;DHT22;333;48.800;9.530;2023-10-31T07:55:17;11.10;99.60
2260;DHT22;333;48.800;9.530;2023-10-31T07:57:44;11.10;99.60
2260;DHT22;333;48.800;9.530;2023-10-31T08:00:13;11.10;99.60
2260;DHT22;333;48.800;9.530;2023-10-31T08:02:40;11.10;99.60
2260;DHT22;333;48.800;9.530;2023-10-31T08:05:10;11.20;99.60
2260;DHT22;333;48.800;9.530;2023-10-31T08:07:37;11.20;99.60
2260;DHT22;333;48.800;9.530;2023-10-31T08:10:05;11.20;99.60
2260;DHT22;333;48.800;9.530;2023-10-31T08:12:32;11.30;99.60
2260;DHT22;333;48.800;9.530;2023-10-31T08:14:59;11.30;99.60
2260;DHT22;333;48.800;9.530;2023-10-31T08:17:27;11.40;99.60
2260;DHT22;333;48.800;9.530;2023-10-31T08:19:54;11.40;99.60
2260;DHT22;333;48.800;9.530;2023-10-31T08:22:22;11.40;99.60
2260;DHT22;333;48.800;9.530;2023-10-31T08:24:49;11.50;99.60
2260;DHT22;333;48.800;9.530;2023-10-31T08:27:17;11.50;99.60
2260;DHT22;333;48.800;9.530;2023-10-31T08:29:44;11.60;99.60
2260;DHT22;333;48.800;9.530;2023-10-31T08:32:11;11.60;99.60
2260;DHT22;333;48.800;9.530;2023-10-31T08:34:38;11.70;99.60
2260;DHT22;333;48.800;9.530;2023-10-31T08:37:05;11.70;99.60
2260;DHT22;333;48.800;9.530;2023-10-31T08:39:33;11.80;99.60
2260;DHT22;333;48.800;9.530;2023-10-31T08:42:00;11.90;99.60
2260;DHT22;333;48.800;9.530;2023-10-31T08:44:26;12.00;99.60
2260;DHT22;333;48.800;9.530;2023-10-31T08:46:53;12.00;99.60
2260;DHT22;333;48.800;9.530;2023-10-31T08:49:20;12.20;99.60
2260;DHT22;333;48.800;9.530;2023-10-31T08:51:47;12.20;99.60
2260;DHT22;333;48.800;9.530;2023-10-31T08:54:15;12.30;99.60
2260;DHT22;333;48.800;9.530;2023-10-31T08:56:43;12.40;99.60
2260;DHT22;333;48.800;9.530;2023-10-31T08:59:10;12.50;99.60
2260;DHT22;333;48.800;9.530;2023-10-31T09:01:37;12.50;99.60
2260;DHT22;333;48.800;9.530;2023-10-31T09:04:04;12.50;99.60
2260;DHT22;333;48.800;9.530;2023-10-31T09:06:31;12.50;99.60
2260;DHT22;333;48.800;9.530;2023-10-31T09:08:58;12.50;99.60
2260;DHT22;333;48.800;9.530;2023-10-31T09:11:25;12.60;99.60
2260;DHT22;333;48.800;9.530;2023-10-31T09:13:54;12.70;99.60
2260;DHT22;333;48.800;9.530;2023-10-31T09:16:21;12.70;99.60
2260;DHT22;333;48.800;9.530;2023-10-31T09:18:48;12.70;99.60
2260;DHT22;333;48.800;9.530;2023-10-31T09:21:15;12.70;99.60
2260;DHT22;333;48.800;9.530;2023-10-31T09:23:42;12.70;99.60
2260;DHT22;333;48.800;9.530;2023-10-31T09:26:09;12.80;99.60
2260;DHT22;333;48.800;9.530;2023-10-31T09:28:36;12.90;99.60
2260;DHT22;333;48.800;9.530;2023-10-31T09:31:06;12.90;99.60
2260;DHT22;333;48.800;9.530;2023-10-31T09:33:33;13.00;99.60
2260;DHT22;333;48.800;9.530;2023-10-31T09:36:00;13.00;99.60
2260;DHT22;333;48.800;9.530;2023-10-31T09:38:27;13.10;99.60
2260;DHT22;333;48.800;9.530;2023-10-31T09:40:54;13.20;99.60
2260;DHT22;333;48.800;9.530;2023-10-31T09:43:21;13.30;99.60
2260;DHT22;333;48.800;9.530;2023-10-31T09:45:48;13.40;99.60
2260;DHT22;333;48.800;9.530;2023-10-31T09:48:18;13.50;99.60
2260;DHT22;333;48.800;9.530;2023-10-31T09:50:46;13.70;99.60
2260;DHT22;333;48.800;9.530;2023-10-31T09:53:14;13.80;99.60
2260;DHT22;333;48.800;9.530;2023-10-31T09:55:43;13.70;99.60
2260;DHT22;333;48.800;9.530;2023-10-31T09:58:09;13.80;99.60
2260;DHT22;333;48.800;9.530;2023-10-31T10:00:37;13.80;99.60
2260;DHT22;333;48.800;9.530;2023-10-31T10:03:04;14.00;99.60
2260;DHT22;333;48.800;9.530;2023-10-31T10:05:35;14.10;99.60
2260;DHT22;333;48.800;9.530;2023-10-31T10:08:03;14.20;99.60
2260;DHT22;333;48.800;9.530;2023-10-31T10:10:30;14.40;99.60
2260;DHT22;333;48.800;9.530;2023-10-31T10:12:57;14.40;99.60
2260;DHT22;333;48.800;9.530;2023-10-31T10:15:28;14.20;99.60
2260;DHT22;333;48.800;9.530;2023-10-31T10:17:55;14.00;99.60
2260;DHT22;333;48.800;9.530;2023-10-31T10:20:22;13.90;99.60
2260;DHT22;333;48.800;9.530;2023-10-31T10:22:53;13.80;99.60
2260;DHT22;333;48.800;9.530;2023-10-31T10:25:22;13.70;99.60
2260;DHT22;333;48.800;9.530;2023-10-31T10:27:48;13.80;99.60
2260;DHT22;333;48.800;9.530;2023-10-31T10:30:15;13.80;99.60
2260;DHT22;333;48.800;9.530;2023-10-31T10:32:42;13.70;99.60
2260;DHT22;333;48.800;9.530;2023-10-31T10:35:10;13.60;99.60
2260;DHT22;333;48.800;9.530;2023-10-31T10:37:38;13.60;99.60
2260;DHT22;333;48.800;9.530;2023-10-31T10:40:11;13.50;99.60
2260;DHT22;333;48.800;9.530;2023-10-31T10:42:47;13.50;99.60
2260;DHT22;333;48.800;9.530;2023-10-31T10:45:15;13.40;99.60
2260;DHT22;333;48.800;9.530;2023-10-31T10:47:47;13.30;99.60
2260;DHT22;333;48.800;9.530;2023-10-31T10:50:14;13.30;99.60
2260;DHT22;333;48.800;9.530;2023-10-31T10:52:44;13.20;99.60
2260;DHT22;333;48.800;9.530;2023-10-31T10:55:20;13.20;99.60
2260;DHT22;333;48.800;9.530;2023-10-31T10:57:55;13.20;99.60
2260;DHT22;333;48.800;9.530;2023-10-31T11:00:23;13.20;99.60
2260;DHT22;333;48.800;9.530;2023-10-31T11:02:52;13.30;99.60
2260;DHT22;333;48.800;9.530;2023-10-31T11:05:19;13.40;99.60
2260;DHT22;333;48.800;9.530;2023-10-31T11:07:47;13.50;99.60
2260;DHT22;333;48.800;9.530;2023-10-31T11:10:15;13.70;99.60
2260;DHT22;333;48.800;9.530;2023-10-31T11:12:45;13.90;99.60
2260;DHT22;333;48.800;9.530;2023-10-31T11:15:15;13.90;99.60
2260;DHT22;333;48.800;9.530;2023-10-31T11:17:44;13.90;99.60
2260;DHT22;333;48.800;9.530;2023-10-31T11:20:13;13.90;99.60
2260;DHT22;333;48.800;9.530;2023-10-31T11:22:42;13.70;99.60
2260;DHT22;333;48.800;9.530;2023-10-31T11:25:12;13.60;99.60
2260;DHT22;333;48.800;9.530;2023-10-31T11:27:39;13.50;99.60
2260;DHT22;333;48.800;9.530;2023-10-31T11:30:20;13.60;99.60
2260;DHT22;333;48.800;9.530;2023-10-31T11:32:48;13.60;99.60
2260;DHT22;333;48.800;9.530;2023-10-31T11:35:16;13.60;99.60
2260;DHT22;333;48.800;9.530;2023-10-31T11:37:44;13.80;99.60
2260;DHT22;333;48.800;9.530;2023-10-31T11:40:19;14.00;99.60
2260;DHT22;333;48.800;9.530;2023-10-31T11:42:50;13.90;99.60
2260;DHT22;333;48.800;9.530;2023-10-31T11:45:33;13.80;99.60
2260;DHT22;333;48.800;9.530;2023-10-31T11:48:01;13.80;99.60
2260;DHT22;333;48.800;9.530;2023-10-31T11:50:30;13.70;99.60
2260;DHT22;333;48.800;9.530;2023-10-31T11:53:02;13.60;99.60
2260;DHT22;333;48.800;9.530;2023-10-31T11:55:31;13.60;99.60
2260;DHT22;333;48.800;9.530;2023-10-31T11:58:12;13.60;99.60
2260;DHT22;333;48.800;9.530;2023-10-31T12:00:41;13.60;99.60
2260;DHT22;333;48.800;9.530;2023-10-31T12:03:08;13.60;99.60
2260;DHT22;333;48.800;9.530;2023-10-31T12:05:35;13.60;99.60
2260;DHT22;333;48.800;9.530;2023-10-31T12:08:02;13.60;99.60
2260;DHT22;333;48.800;9.530;2023-10-31T12:10:29;13.60;99.60
2260;DHT22;333;48.800;9.530;2023-10-31T12:12:57;13.40;99.60
2260;DHT22;333;48.800;9.530;2023-10-31T12:15:25;13.30;99.60
2260;DHT22;333;48.800;9.530;2023-10-31T12:17:57;13.20;99.60
2260;DHT22;333;48.800;9.530;2023-10-31T12:20:25;13.20;99.60
2260;DHT22;333;48.800;9.530;2023-10-31T12:23:02;13.30;99.60
2260;DHT22;333;48.800;9.530;2023-10-31T12:25:30;13.20;99.60
2260;DHT22;333;48.800;9.530;2023-10-31T12:28:00;13.30;99.60
2260;DHT22;333;48.800;9.530;2023-10-31T12:30:27;13.30;99.60
2260;DHT22;333;48.800;9.530;2023-10-31T12:32:56;13.40;99.60
2260;DHT22;333;48.800;9.530;2023-10-31T12:35:24;13.30;99.60
2260;DHT22;333;48.800;9.530;2023-10-31T12:37:53;13.30;99.60
2260;DHT22;333;48.800;9.530;2023-10-31T12:40:22;13.20;99.60
2260;DHT22;333;48.800;9.530;2023-10-31T12:42:49;13.20;99.60
2260;DHT22;333;48.800;9.530;2023-10-31T12:45:18;13.30;99.60
2260;DHT22;333;48.800;9.530;2023-10-31T12:47:46;13.40;99.60
2260;DHT22;333;48.800;9.530;2023-10-31T12:50:27;13.60;99.60
2260;DHT22;333;48.800;9.530;2023-10-31T12:52:55;13.60;99.60
2260;DHT22;333;48.800;9.530;2023-10-31T12:55:24;13.80;99.60
2260;DHT22;333;48.800;9.530;2023-10-31T12:57:53;13.90;99.60
2260;DHT22;333;48.800;9.530;2023-10-31T13:00:22;14.00;99.60
2260;DHT22;333;48.800;9.530;2023-10-31T13:02:52;14.20;99.60
2260;DHT22;333;48.800;9.530;2023-10-31T13:05:19;14.10;99.60
2260;DHT22;333;48.800;9.530;2023-10-31T13:07:54;14.10;99.60
2260;DHT22;333;48.800;9.530;2023-10-31T13:10:23;14.30;99.60
2260;DHT22;333;48.800;9.530;2023-10-31T13:12:51;14.30;99.60
2260;DHT22;333;48.800;9.530;2023-10-31T13:15:19;14.40;99.60
2260;DHT22;333;48.800;9.530;2023-10-31T13:17:46;14.60;99.60
2260;DHT22;333;48.800;9.530;2023-10-31T13:20:14;14.60;99.60
2260;DHT22;333;48.800;9.530;2023-10-31T13:22:42;14.40;99.60
2260;DHT22;333;48.800;9.530;2023-10-31T13:25:12;14.40;99.60
2260;DHT22;333;48.800;9.530;2023-10-31T13:27:40;14.40;99.60
2260;DHT22;333;48.800;9.530;2023-10-31T13:30:10;14.20;99.60
2260;DHT22;333;48.800;9.530;2023-10-31T13:32:37;14.10;99.60
2260;DHT22;333;48.800;9.530;2023-10-31T13:35:05;14.10;99.60
2260;DHT22;333;48.800;9.530;2023-10-31T13:37:32;13.90;99.60
2260;DHT22;333;48.800;9.530;2023-10-31T13:40:00;13.80;99.60
2260;DHT22;333;48.800;9.530;2023-10-31T13:42:28;13.60;99.60
2260;DHT22;333;48.800;9.530;2023-10-31T13:44:56;13.60;99.60
2260;DHT22;333;48.800;9.530;2023-10-31T13:47:23;13.60;99.60
2260;DHT22;333;48.800;9.530;2023-10-31T13:49:50;13.50;99.60
2260;DHT22;333;48.800;9.530;2023-10-31T13:52:17;13.50;99.60
2260;DHT22;333;48.800;9.530;2023-10-31T13:54:44;13.50;99.60
2260;DHT22;333;48.800;9.530;2023-10-31T13:57:11;13.50;99.60
2260;DHT22;333;48.800;9.530;2023-10-31T13:59:41;13.50;99.60
2260;DHT22;333;48.800;9.530;2023-10-31T14:02:08;13.50;99.60
2260;DHT22;333;48.800;9.530;2023-10-31T14:04:35;13.30;99.60
2260;DHT22;333;48.800;9.530;2023-10-31T14:07:02;13.40;99.60
2260;DHT22;333;48.800;9.530;2023-10-31T14:09:29;13.40;99.60
2260;DHT22;333;48.800;9.530;2023-10-31T14:11:56;13.40;99.60
2260;DHT22;333;48.800;9.530;2023-10-31T14:14:23;13.50;99.60
2260;DHT22;333;48.800;9.530;2023-10-31T14:16:52;13.50;99.60
2260;DHT22;333;48.800;9.530;2023-10-31T14:19:19;13.60;99.60
2260;DHT22;333;48.800;9.530;2023-10-31T14:21:46;13.50;99.60
2260;DHT22;333;48.800;9.530;2023-10-31T14:24:13;13.50;99.60
2260;DHT22;333;48.800;9.530;2023-10-31T14:26:40;13.40;99.60
2260;DHT22;333;48.800;9.530;2023-10-31T14:29:08;13.30;99.60
2260;DHT22;333;48.800;9.530;2023-10-31T14:31:40;13.40;99.60
2260;DHT22;333;48.800;9.530;2023-10-31T14:34:09;13.40;99.60
2260;DHT22;333;48.800;9.530;2023-10-31T14:36:36;13.40;99.60
2260;DHT22;333;48.800;9.530;2023-10-31T14:39:03;13.40;99.60
2260;DHT22;333;48.800;9.530;2023-10-31T14:41:30;13.40;99.60
2260;DHT22;333;48.800;9.530;2023-10-31T14:43:59;13.40;99.60
2260;DHT22;333;48.800;9.530;2023-10-31T14:46:27;13.40;99.60
2260;DHT22;333;48.800;9.530;2023-10-31T14:48:54;13.40;99.60
2260;DHT22;333;48.800;9.530;2023-10-31T14:51:23;13.40;99.60
2260;DHT22;333;48.800;9.530;2023-10-31T14:53:50;13.40;99.60
2260;DHT22;333;48.800;9.530;2023-10-31T14:56:17;13.30;99.60
2260;DHT22;333;48.800;9.530;2023-10-31T14:58:44;13.30;99.60
2260;DHT22;333;48.800;9.530;2023-10-31T15:01:11;13.30;99.60
2260;DHT22;333;48.800;9.530;2023-10-31T15:03:39;13.20;99.60
2260;DHT22;333;48.800;9.530;2023-10-31T15:06:06;13.20;99.60
2260;DHT22;333;48.800;9.530;2023-10-31T15:08:36;13.10;99.60
2260;DHT22;333;48.800;9.530;2023-10-31T15:11:04;13.10;99.60
2260;DHT22;333;48.800;9.530;2023-10-31T15:13:30;13.00;99.60
2260;DHT22;333;48.800;9.530;2023-10-31T15:15:58;12.90;99.60
2260;DHT22;333;48.800;9.530;2023-10-31T15:18:24;12.90;99.60
2260;DHT22;333;48.800;9.530;2023-10-31T15:20:51;12.80;99.60
2260;DHT22;333;48.800;9.530;2023-10-31T15:23:20;12.90;99.60
2260;DHT22;333;48.800;9.530;2023-10-31T15:25:49;12.90;99.60
2260;DHT22;333;48.800;9.530;2023-10-31T15:28:16;12.80;99.60
2260;DHT22;333;48.800;9.530;2023-10-31T15:30:43;12.70;99.60
2260;DHT22;333;48.800;9.530;2023-10-31T15:33:10;12.50;99.60
2260;DHT22;333;48.800;9.530;2023-10-31T15:35:37;12.50;99.60
2260;DHT22;333;48.800;9.530;2023-10-31T15:38:04;12.40;99.60
2260;DHT22;333;48.800;9.530;2023-10-31T15:40:31;12.30;99.60
2260;DHT22;333;48.800;9.530;2023-10-31T15:42:59;12.20;99.60
2260;DHT22;333;48.800;9.530;2023-10-31T15:45:27;12.10;99.60
2260;DHT22;333;48.800;9.530;2023-10-31T15:47:54;12.20;99.60
2260;DHT22;333;48.800;9.530;2023-10-31T15:50:21;12.00;99.60
2260;DHT22;333;48.800;9.530;2023-10-31T15:52:48;11.80;99.60
2260;DHT22;333;48.800;9.530;2023-10-31T15:55:15;11.70;99.60
2260;DHT22;333;48.800;9.530;2023-10-31T15:57:49;11.70;99.60
2260;DHT22;333;48.800;9.530;2023-10-31T16:00:18;11.70;99.60
2260;DHT22;333;48.800;9.530;2023-10-31T16:02:45;11.60;99.60
2260;DHT22;333;48.800;9.530;2023-10-31T16:05:12;11.60;99.60
2260;DHT22;333;48.800;9.530;2023-10-31T16:07:39;11.50;99.60
2260;DHT22;333;48.800;9.530;2023-10-31T16:10:07;11.50;99.60
2260;DHT22;333;48.800;9.530;2023-10-31T16:12:34;11.50;99.60
2260;DHT22;333;48.800;9.530;2023-10-31T16:15:01;11.60;99.60
2260;DHT22;333;48.800;9.530;2023-10-31T16:17:30;11.60;99.60
2260;DHT22;333;48.800;9.530;2023-10-31T16:19:57;11.60;99.60
2260;DHT22;333;48.800;9.530;2023-10-31T16:22:24;11.50;99.60